Terminal Aerodrome Forecast
Issued by NWS Shreveport, LA

Home | Current Version | Previous Version | Text Only | Print | Product List | Glossary On
Versions: 1 2 3 4 5 6 7 8 9 10 11 12 13 14 15 16 17
000
FTUS44 KSHV 181135
TAFTYR
TAF
KTYR 181135Z 1812/1912 20007KT P6SM BKN180 BKN250
      TEMPO 1812/1814 00000KT 4SM BR
     FM181500 22009KT P6SM SCT050 BKN150 BKN250
     FM190000 18005KT P6SM SCT250=

USA.gov is the U.S. government's official web portal to all federal, state and local government web resources and services.